カンザスシティ の空港の天気 - METARとTAF

カンザスシティ国際空港 ( KMCI / MCI ) - アメリカ ミズーリ州カンザスシティ
飛行場実況気象(Metar)
観測時間01/21 11:53 CST (01/21 17:53 UTC)
風向・風速南 4m/s
視程10km以上
天気現象
全天の4割程度の雲 雲底高度 640m
全天の8割程度の雲 雲底高度 1010m
気温13.9℃
湿度77%
気圧1007.3hPa
METARKMCI 211753Z 17008KT 10SM SCT021 BKN033 14/10 A2975 RMK AO2 SLP073 T01390100 10150 20094 58011
過去の天気等 Google飛行場航空写真 Wunderground天気予報

過去48時間のMETAR

飛行場予報(TAF)
発表時間: 1/21 11:38 CST (1/21 17:38 UTC)
予報対象時間: 21日12時 CST ~ 22日12時 CST
風向・風速南 4m/s
視程10km以上
天気現象もや
全天の4割程度の雲 雲底高度 610m
全天の8割程度の雲 雲底高度 760m
21日12時 CST ~ 21日16時 CST に一時的に
全天の4割程度の雲 雲底高度 760m
21日18時 CST から
風向・風速南南東 4m/s
視程10km以上
天気現象弱いしゅう雨 周辺で雷
全天を覆う積乱雲 雲底高度 460m
22日1時 CST から
風向・風速南 5m/s
視程10km以上
全天の4割程度の雲 雲底高度 460m
22日6時 CST から
風向・風速南南西 5m/s
視程4,830m
天気現象弱い霧雨 周辺でしゅう雨
全天の8割程度の雲 雲底高度 300m
KMCI 211738Z 2118/2218 17008KT 6SM BR SCT020 BKN025
TEMPO 2118/2122 SCT025
FM220000 15007KT 6SM -SHRA VCTS OVC015CB
FM220700 17009KT P6SM SCT015
FM221200 20009KT 3SM -DZ VCSH BKN010